TAF Text Data
IDs:
Format:
Raw Decoded Include METAR

Data at: 1748 UTC 20 May 2022

KPGV 201720Z 2018/2118 25008G15KT P6SM FEW050
  FM210400 20007KT P6SM FEW250
  FM210500 21006KT P6SM FEW250 WS020/23035KT
  FM211000 22005KT P6SM SCT250 AMD LTD TO CLD VIS AND WIND